createdAt,value
2023-03-10T00:00:39.150Z,987.9
2023-03-10T00:01:42.537Z,987.9
2023-03-10T00:02:45.616Z,987.9
2023-03-10T00:03:48.091Z,987.9
2023-03-10T00:04:51.743Z,987.9
2023-03-10T00:05:55.350Z,987.9
2023-03-10T00:06:58.992Z,987.9
2023-03-10T00:08:02.344Z,987.9
2023-03-10T00:09:06.512Z,987.9
2023-03-10T00:10:09.799Z,987.8
2023-03-10T00:11:12.607Z,987.8
2023-03-10T00:12:15.585Z,987.8
2023-03-10T00:13:18.026Z,987.8
2023-03-10T00:14:20.744Z,987.8
2023-03-10T00:15:23.981Z,987.8
2023-03-10T00:16:27.051Z,987.8
2023-03-10T00:17:29.597Z,987.8
2023-03-10T00:18:32.584Z,987.7
2023-03-10T00:19:36.014Z,987.7
2023-03-10T00:20:38.811Z,987.7
2023-03-10T00:21:42.887Z,987.7
2023-03-10T00:22:45.430Z,987.7
2023-03-10T00:23:48.205Z,987.6
2023-03-10T00:24:52.408Z,987.6
2023-03-10T00:25:55.133Z,987.6
2023-03-10T00:26:57.763Z,987.6
2023-03-10T00:28:00.747Z,987.5
2023-03-10T00:29:04.470Z,987.5
2023-03-10T00:30:07.899Z,987.5
2023-03-10T00:31:11.375Z,987.5
2023-03-10T00:32:14.767Z,987.5
2023-03-10T00:33:17.564Z,987.4
2023-03-10T00:34:21.236Z,987.4
2023-03-10T00:35:24.295Z,987.4
2023-03-10T00:36:27.667Z,987.4
2023-03-10T00:37:31.090Z,987.4
2023-03-10T00:38:34.203Z,987.4
2023-03-10T00:39:37.315Z,987.4
2023-03-10T00:40:41.909Z,987.4
2023-03-10T00:41:45.196Z,987.3
2023-03-10T00:42:47.944Z,987.3
2023-03-10T00:43:51.344Z,987.3
2023-03-10T00:44:54.194Z,987.3
2023-03-10T00:45:57.504Z,987.3
2023-03-10T00:47:00.843Z,987.2
2023-03-10T00:48:03.602Z,987.3
2023-03-10T00:49:06.391Z,987.3
2023-03-10T00:50:08.651Z,987.3
2023-03-10T00:51:12.033Z,987.2
2023-03-10T00:52:15.725Z,987.2
2023-03-10T00:53:18.817Z,987.2
2023-03-10T00:54:22.227Z,987.2
2023-03-10T00:55:25.319Z,987.2
2023-03-10T00:56:29.468Z,987.1
2023-03-10T00:57:32.418Z,987.1
2023-03-10T00:58:35.400Z,987.1
2023-03-10T00:59:50.960Z,987.1
2023-03-10T01:00:54.413Z,987
2023-03-10T01:01:57.823Z,987
2023-03-10T01:03:01.312Z,987
2023-03-10T01:04:04.043Z,987
2023-03-10T01:05:07.681Z,987
2023-03-10T01:06:11.073Z,986.9
2023-03-10T01:07:13.862Z,986.9
2023-03-10T01:08:16.995Z,986.9
2023-03-10T01:09:19.435Z,986.9
2023-03-10T01:10:22.782Z,986.9
2023-03-10T01:11:25.942Z,986.9
2023-03-10T01:12:30.287Z,986.9
2023-03-10T01:13:33.344Z,986.9
2023-03-10T01:14:36.251Z,986.9
2023-03-10T01:15:39.644Z,986.8
2023-03-10T01:16:42.651Z,986.8
2023-03-10T01:17:45.797Z,986.8
2023-03-10T01:18:49.221Z,986.8
2023-03-10T01:19:52.051Z,986.7
2023-03-10T01:20:54.491Z,986.7
2023-03-10T01:21:57.332Z,986.6
2023-03-10T01:23:00.339Z,986.6
2023-03-10T01:24:04.065Z,986.6
2023-03-10T01:25:06.797Z,986.5
2023-03-10T01:26:09.865Z,986.5
2023-03-10T01:27:12.960Z,986.5
2023-03-10T01:28:17.102Z,986.5
2023-03-10T01:29:20.832Z,986.5
2023-03-10T01:30:23.822Z,986.5
2023-03-10T01:31:27.275Z,986.5
2023-03-10T01:32:30.898Z,986.5
2023-03-10T01:33:33.980Z,986.4
2023-03-10T01:34:37.611Z,986.4
2023-03-10T01:35:41.339Z,986.3
2023-03-10T01:36:44.646Z,986.3
2023-03-10T01:37:47.935Z,986.3
2023-03-10T01:38:51.170Z,986.3
2023-03-10T01:39:54.566Z,986.2
2023-03-10T01:40:57.270Z,986.2
2023-03-10T01:42:00.674Z,986.1
2023-03-10T01:43:04.205Z,986.2
2023-03-10T01:44:08.526Z,986.1
2023-03-10T01:45:11.979Z,986.1
2023-03-10T01:46:15.065Z,986.1
2023-03-10T01:47:18.296Z,986.1
2023-03-10T01:48:20.755Z,986.1
2023-03-10T01:49:24.454Z,986.1
2023-03-10T01:50:27.898Z,986
2023-03-10T01:51:31.443Z,986
2023-03-10T01:52:34.187Z,986
2023-03-10T01:53:36.900Z,986
2023-03-10T01:54:40.005Z,985.9
2023-03-10T01:55:42.830Z,985.9
2023-03-10T01:56:46.571Z,985.9
2023-03-10T01:57:50.197Z,985.9
2023-03-10T01:58:53.027Z,985.9
2023-03-10T01:59:57.461Z,985.9
2023-03-10T02:01:00.714Z,985.9
2023-03-10T02:02:04.292Z,985.9
2023-03-10T02:03:07.506Z,985.9
2023-03-10T02:04:10.256Z,985.8
2023-03-10T02:05:14.275Z,985.8
2023-03-10T02:06:17.143Z,985.8
2023-03-10T02:07:20.772Z,985.8
2023-03-10T02:08:24.434Z,985.7
2023-03-10T02:09:27.489Z,985.7
2023-03-10T02:10:30.948Z,985.7
2023-03-10T02:11:34.297Z,985.6
2023-03-10T02:12:37.394Z,985.6
2023-03-10T02:13:40.675Z,985.6
2023-03-10T02:14:44.100Z,985.6
2023-03-10T02:15:48.260Z,985.6
2023-03-10T02:16:51.066Z,985.6
2023-03-10T02:17:54.628Z,985.6
2023-03-10T02:18:57.205Z,985.6
2023-03-10T02:20:00.048Z,985.5
2023-03-10T02:21:03.458Z,985.5
2023-03-10T02:22:06.894Z,985.5
2023-03-10T02:23:09.419Z,985.5
2023-03-10T02:24:12.778Z,985.4
2023-03-10T02:25:15.492Z,985.4
2023-03-10T02:26:18.232Z,985.4
2023-03-10T02:27:20.969Z,985.4
2023-03-10T02:28:23.962Z,985.4
2023-03-10T02:29:26.686Z,985.3
2023-03-10T02:30:30.294Z,985.3
2023-03-10T02:31:34.700Z,985.3
2023-03-10T02:32:37.594Z,985.2
2023-03-10T02:33:41.064Z,985.2
2023-03-10T02:34:43.866Z,985.2
2023-03-10T02:35:47.739Z,985.2
2023-03-10T02:36:50.994Z,985.2
2023-03-10T02:37:54.174Z,985.2
2023-03-10T02:38:56.977Z,985.1
2023-03-10T02:40:00.645Z,985.1
2023-03-10T02:41:04.401Z,985.1
2023-03-10T02:42:07.865Z,985.1
2023-03-10T02:43:10.371Z,985
2023-03-10T02:44:13.112Z,985.1
2023-03-10T02:45:16.468Z,985
2023-03-10T02:46:19.306Z,985
2023-03-10T02:47:23.888Z,984.9
2023-03-10T02:48:28.968Z,984.9
2023-03-10T02:49:32.332Z,984.9
2023-03-10T02:50:34.851Z,984.8
2023-03-10T02:51:37.583Z,984.9
2023-03-10T02:52:40.310Z,984.8
2023-03-10T02:53:43.179Z,984.8
2023-03-10T02:54:46.357Z,984.8
2023-03-10T02:55:49.432Z,984.9
2023-03-10T02:56:52.515Z,984.8
2023-03-10T02:57:55.514Z,984.8
2023-03-10T02:58:58.233Z,984.8
2023-03-10T03:00:01.280Z,984.8
2023-03-10T03:01:04.561Z,984.7
2023-03-10T03:02:08.085Z,984.8
2023-03-10T03:03:12.247Z,984.8
2023-03-10T03:04:14.891Z,984.7
2023-03-10T03:05:17.384Z,984.7
2023-03-10T03:06:20.509Z,984.7
2023-03-10T03:07:23.868Z,984.7
2023-03-10T03:08:26.377Z,984.7
2023-03-10T03:09:30.111Z,984.6
2023-03-10T03:10:33.143Z,984.6
2023-03-10T03:11:36.893Z,984.6
2023-03-10T03:12:39.875Z,984.6
2023-03-10T03:13:42.973Z,984.6
2023-03-10T03:14:45.789Z,984.5
2023-03-10T03:15:48.553Z,984.5
2023-03-10T03:16:52.133Z,984.5
2023-03-10T03:17:56.204Z,984.5
2023-03-10T03:19:00.448Z,984.5
2023-03-10T03:20:03.071Z,984.5
2023-03-10T03:21:06.219Z,984.5
2023-03-10T03:22:09.288Z,984.4
2023-03-10T03:23:12.981Z,984.4
2023-03-10T03:24:16.404Z,984.4
2023-03-10T03:25:20.104Z,984.4
2023-03-10T03:26:23.859Z,984.4
2023-03-10T03:27:26.622Z,984.4
2023-03-10T03:28:29.404Z,984.3
2023-03-10T03:29:33.517Z,984.4
2023-03-10T03:30:36.525Z,984.4
2023-03-10T03:31:39.621Z,984.4
2023-03-10T03:32:43.036Z,984.3
2023-03-10T03:33:46.182Z,984.3
2023-03-10T03:34:50.438Z,984.3
2023-03-10T03:35:53.588Z,984.3
2023-03-10T03:36:56.558Z,984.3
2023-03-10T03:37:59.617Z,984.3
2023-03-10T03:39:02.344Z,984.3
2023-03-10T03:40:05.856Z,984.2
2023-03-10T03:41:08.642Z,984.2
2023-03-10T03:42:11.075Z,984.2
2023-03-10T03:43:13.587Z,984.2
2023-03-10T03:44:16.740Z,984.1
2023-03-10T03:45:20.516Z,984.1
2023-03-10T03:46:23.991Z,984.1
2023-03-10T03:47:27.171Z,984.1
2023-03-10T03:48:29.330Z,984.1
2023-03-10T03:49:32.203Z,984.1
2023-03-10T03:50:36.421Z,984
2023-03-10T03:51:39.223Z,984
2023-03-10T03:52:42.838Z,984
2023-03-10T03:53:45.962Z,984
2023-03-10T03:54:48.480Z,983.9
2023-03-10T03:55:51.511Z,983.9
2023-03-10T03:56:54.285Z,983.9
2023-03-10T03:57:57.667Z,983.9
2023-03-10T03:58:59.999Z,983.9
2023-03-10T04:00:02.955Z,983.8
2023-03-10T04:01:05.964Z,983.8
2023-03-10T04:02:09.822Z,983.8
2023-03-10T04:03:13.350Z,983.8
2023-03-10T04:04:16.134Z,983.8
2023-03-10T04:05:19.323Z,983.7
2023-03-10T04:06:23.612Z,983.7
2023-03-10T04:07:26.602Z,983.7
2023-03-10T04:08:29.378Z,983.7
2023-03-10T04:09:32.900Z,983.7
2023-03-10T04:10:36.215Z,983.7
2023-03-10T04:11:39.608Z,983.7
2023-03-10T04:12:42.969Z,983.7
2023-03-10T04:13:46.114Z,983.7
2023-03-10T04:14:49.844Z,983.7
2023-03-10T04:15:53.221Z,983.6
2023-03-10T04:16:57.180Z,983.6
2023-03-10T04:18:00.495Z,983.6
2023-03-10T04:19:04.047Z,983.6
2023-03-10T04:20:08.907Z,983.6
2023-03-10T04:21:12.696Z,983.6
2023-03-10T04:22:17.031Z,983.6
2023-03-10T04:23:20.126Z,983.6
2023-03-10T04:24:23.567Z,983.6
2023-03-10T04:25:26.576Z,983.5
2023-03-10T04:26:29.543Z,983.6
2023-03-10T04:27:32.389Z,983.6
2023-03-10T04:28:35.905Z,983.6
2023-03-10T04:29:39.321Z,983.5
2023-03-10T04:30:42.702Z,983.5
2023-03-10T04:32:05.422Z,983.5
2023-03-10T04:33:09.068Z,983.4
2023-03-10T04:34:12.644Z,983.4
2023-03-10T04:35:15.481Z,983.4
2023-03-10T04:36:18.659Z,983.4
2023-03-10T04:37:23.028Z,983.4
2023-03-10T04:38:26.114Z,983.4
2023-03-10T04:39:29.299Z,983.4
2023-03-10T04:40:32.728Z,983.4
2023-03-10T04:41:36.153Z,983.4
2023-03-10T04:42:39.222Z,983.4
2023-03-10T04:43:46.322Z,983.4
2023-03-10T04:44:50.532Z,983.4
2023-03-10T04:45:54.289Z,983.4
2023-03-10T04:46:57.739Z,983.3
2023-03-10T04:48:00.969Z,983.3
2023-03-10T04:49:04.402Z,983.3
2023-03-10T04:50:07.802Z,983.3
2023-03-10T04:51:10.772Z,983.3
2023-03-10T04:52:14.161Z,983.2
2023-03-10T04:53:18.315Z,983.3
2023-03-10T04:54:21.440Z,983.3
2023-03-10T04:55:23.993Z,983.3
2023-03-10T04:56:27.414Z,983.3
2023-03-10T04:57:29.936Z,983.3
2023-03-10T04:58:32.958Z,983.2
2023-03-10T04:59:35.956Z,983.2
2023-03-10T05:00:50.145Z,983.2
2023-03-10T05:02:06.591Z,983.2
2023-03-10T05:03:09.866Z,983.2
2023-03-10T05:04:13.526Z,983.2
2023-03-10T05:05:16.418Z,983.2
2023-03-10T05:06:19.605Z,983.1
2023-03-10T05:07:23.170Z,983.1
2023-03-10T05:08:27.775Z,983.1
2023-03-10T05:09:31.158Z,983.1
2023-03-10T05:10:34.778Z,983.1
2023-03-10T05:11:37.585Z,983.1
2023-03-10T05:12:40.042Z,983.1
2023-03-10T05:13:43.785Z,983.1
2023-03-10T05:14:46.881Z,983.1
2023-03-10T05:15:49.422Z,983.1
2023-03-10T05:16:52.106Z,983.1
2023-03-10T05:17:54.355Z,983.1
2023-03-10T05:18:57.828Z,983.1
2023-03-10T05:20:00.822Z,983.1
2023-03-10T05:21:03.891Z,983.1
2023-03-10T05:22:07.669Z,983.1
2023-03-10T05:23:10.428Z,983.1
2023-03-10T05:24:14.704Z,983.1
2023-03-10T05:25:18.153Z,983.1
2023-03-10T05:26:20.945Z,983.1
2023-03-10T05:27:23.776Z,983
2023-03-10T05:28:27.217Z,983.1
2023-03-10T05:29:30.571Z,983.1
2023-03-10T05:30:33.399Z,983.1
2023-03-10T05:31:35.738Z,983
2023-03-10T05:32:39.208Z,983.1
2023-03-10T05:33:42.566Z,983
2023-03-10T05:34:45.367Z,983
2023-03-10T05:35:48.893Z,983
2023-03-10T05:36:52.242Z,982.9
2023-03-10T05:37:55.615Z,982.9
2023-03-10T05:38:58.890Z,982.9
2023-03-10T05:40:03.093Z,983
2023-03-10T05:41:06.185Z,982.9
2023-03-10T05:42:09.592Z,982.9
2023-03-10T05:43:12.921Z,982.9
2023-03-10T05:44:20.085Z,982.9
2023-03-10T05:45:23.569Z,982.9
2023-03-10T05:46:27.212Z,982.9
2023-03-10T05:47:30.386Z,982.9
2023-03-10T05:48:33.539Z,982.9
2023-03-10T05:49:39.040Z,982.9
2023-03-10T05:50:41.572Z,982.9
2023-03-10T05:51:45.049Z,982.9
2023-03-10T05:52:47.575Z,982.9
2023-03-10T05:53:50.447Z,982.8
2023-03-10T05:54:52.397Z,982.8
2023-03-10T05:55:56.589Z,982.8
2023-03-10T05:56:59.862Z,982.8
2023-03-10T05:58:02.861Z,982.9
2023-03-10T05:59:05.454Z,982.9
2023-03-10T06:00:07.766Z,982.8
2023-03-10T06:01:10.660Z,982.8
2023-03-10T06:02:13.954Z,982.8
2023-03-10T06:03:17.366Z,982.8
2023-03-10T06:04:21.596Z,982.8
2023-03-10T06:05:25.115Z,982.8
2023-03-10T06:06:28.206Z,982.8
2023-03-10T06:07:31.208Z,982.8
2023-03-10T06:08:34.305Z,982.8
2023-03-10T06:09:37.536Z,982.8
2023-03-10T06:10:40.649Z,982.8
2023-03-10T06:11:44.823Z,982.8
2023-03-10T06:12:47.430Z,982.8
2023-03-10T06:13:50.851Z,982.8
2023-03-10T06:14:54.037Z,982.8
2023-03-10T06:15:57.663Z,982.8
2023-03-10T06:17:01.583Z,982.8
2023-03-10T06:18:04.451Z,982.7
2023-03-10T06:19:08.215Z,982.8
2023-03-10T06:20:11.056Z,982.7
2023-03-10T06:21:13.774Z,982.8
2023-03-10T06:22:16.284Z,982.7
2023-03-10T06:23:19.093Z,982.7
2023-03-10T06:24:22.022Z,982.7
2023-03-10T06:25:25.011Z,982.7
2023-03-10T06:26:28.466Z,982.7
2023-03-10T06:27:32.686Z,982.6
2023-03-10T06:28:35.500Z,982.6
2023-03-10T06:29:38.901Z,982.6
2023-03-10T06:30:41.989Z,982.6
2023-03-10T06:31:44.819Z,982.6
2023-03-10T06:32:48.248Z,982.6
2023-03-10T06:33:51.053Z,982.6
2023-03-10T06:34:53.849Z,982.6
2023-03-10T06:35:57.290Z,982.5
2023-03-10T06:37:01.055Z,982.6
2023-03-10T06:38:04.242Z,982.5
2023-03-10T06:39:07.517Z,982.5
2023-03-10T06:40:10.911Z,982.5
2023-03-10T06:41:14.615Z,982.5
2023-03-10T06:42:17.153Z,982.5
2023-03-10T06:43:21.440Z,982.6
2023-03-10T06:44:24.839Z,982.6
2023-03-10T06:45:26.739Z,982.5
2023-03-10T06:46:30.186Z,982.6
2023-03-10T06:47:33.586Z,982.5
2023-03-10T06:48:37.328Z,982.5
2023-03-10T06:49:40.192Z,982.6
2023-03-10T06:50:43.289Z,982.6
2023-03-10T06:51:46.013Z,982.6
2023-03-10T06:52:49.088Z,982.6
2023-03-10T06:53:52.467Z,982.7
2023-03-10T06:54:55.339Z,982.6
2023-03-10T06:55:58.338Z,982.6
2023-03-10T06:57:01.446Z,982.6
2023-03-10T06:58:04.475Z,982.6
2023-03-10T06:59:08.748Z,982.7
2023-03-10T07:00:11.377Z,982.7
2023-03-10T07:01:14.904Z,982.6
2023-03-10T07:02:17.600Z,982.7
2023-03-10T07:03:20.776Z,982.7
2023-03-10T07:04:23.623Z,982.7
2023-03-10T07:05:26.337Z,982.7
2023-03-10T07:06:29.124Z,982.7
2023-03-10T07:07:32.382Z,982.7
2023-03-10T07:08:35.428Z,982.7
2023-03-10T07:09:38.144Z,982.7
2023-03-10T07:10:40.970Z,982.7
2023-03-10T07:11:44.124Z,982.8
2023-03-10T07:12:47.593Z,982.8
2023-03-10T07:13:50.628Z,982.7
2023-03-10T07:14:55.043Z,982.8
2023-03-10T07:15:58.036Z,982.7
2023-03-10T07:17:01.273Z,982.8
2023-03-10T07:18:04.894Z,982.8
2023-03-10T07:19:07.936Z,982.8
2023-03-10T07:20:11.719Z,982.8
2023-03-10T07:21:14.796Z,982.8
2023-03-10T07:22:17.890Z,982.8
2023-03-10T07:23:21.688Z,982.8
2023-03-10T07:24:25.232Z,982.8
2023-03-10T07:25:28.440Z,982.8
2023-03-10T07:26:32.157Z,982.9
2023-03-10T07:27:35.598Z,982.9
2023-03-10T07:28:39.036Z,982.9
2023-03-10T07:29:41.777Z,983
2023-03-10T07:30:46.285Z,983
2023-03-10T07:31:49.197Z,982.9
2023-03-10T07:32:51.642Z,982.9
2023-03-10T07:33:55.093Z,982.9
2023-03-10T07:34:57.607Z,982.9
2023-03-10T07:36:01.015Z,982.9
2023-03-10T07:37:03.924Z,982.9
2023-03-10T07:38:07.444Z,982.9
2023-03-10T07:39:10.836Z,983
2023-03-10T07:40:13.623Z,982.9
2023-03-10T07:41:17.393Z,982.9
2023-03-10T07:42:20.621Z,982.9
2023-03-10T07:43:24.299Z,983
2023-03-10T07:44:28.067Z,983
2023-03-10T07:45:30.998Z,983
2023-03-10T07:46:35.450Z,983
2023-03-10T07:47:38.921Z,982.9
2023-03-10T07:48:42.042Z,983
2023-03-10T07:49:44.877Z,983
2023-03-10T07:50:47.629Z,983
2023-03-10T07:51:51.381Z,983
2023-03-10T07:52:54.090Z,983
2023-03-10T07:53:56.814Z,983
2023-03-10T07:55:00.254Z,982.9
2023-03-10T07:56:03.370Z,983
2023-03-10T07:57:06.360Z,982.9
2023-03-10T07:58:09.670Z,983
2023-03-10T07:59:13.547Z,983
2023-03-10T08:00:16.349Z,983
2023-03-10T08:01:20.053Z,983
2023-03-10T08:02:24.379Z,983.1
2023-03-10T08:03:27.753Z,983.1
2023-03-10T08:04:31.834Z,983.1
2023-03-10T08:05:35.576Z,983.1
2023-03-10T08:06:40.203Z,983.1
2023-03-10T08:07:43.322Z,983.1
2023-03-10T08:08:46.676Z,983.1
2023-03-10T08:09:50.353Z,983.1
2023-03-10T08:10:53.485Z,983.1
2023-03-10T08:11:56.864Z,983.1
2023-03-10T08:12:59.943Z,983.1
2023-03-10T08:14:03.087Z,983.1
2023-03-10T08:15:06.800Z,983.1
2023-03-10T08:16:10.563Z,983.1
2023-03-10T08:17:13.495Z,983.1
2023-03-10T08:18:17.720Z,983.1
2023-03-10T08:19:21.375Z,983.1
2023-03-10T08:20:24.264Z,983.2
2023-03-10T08:21:27.652Z,983.2
2023-03-10T08:22:30.706Z,983.2
2023-03-10T08:23:34.732Z,983.1
2023-03-10T08:24:40.371Z,983.1
2023-03-10T08:25:42.985Z,983.2
2023-03-10T08:26:46.735Z,983.1
2023-03-10T08:27:49.801Z,983.2
2023-03-10T08:28:53.275Z,983.2
2023-03-10T08:29:56.350Z,983.1
2023-03-10T08:31:05.639Z,983.2
2023-03-10T08:32:09.094Z,983.2
2023-03-10T08:33:13.296Z,983.2
2023-03-10T08:34:17.499Z,983.2
2023-03-10T08:35:20.919Z,983.2
2023-03-10T08:36:24.645Z,983.2
2023-03-10T08:37:28.025Z,983.3
2023-03-10T08:38:31.170Z,983.2
2023-03-10T08:39:33.945Z,983.2
2023-03-10T08:40:37.632Z,983.3
2023-03-10T08:41:41.273Z,983.2
2023-03-10T08:42:48.568Z,983.2
2023-03-10T08:43:51.461Z,983.2
2023-03-10T08:44:54.809Z,983.2
2023-03-10T08:45:58.195Z,983.2
2023-03-10T08:47:02.079Z,983.2
2023-03-10T08:48:05.198Z,983.3
2023-03-10T08:49:08.621Z,983.3
2023-03-10T08:50:13.049Z,983.2
2023-03-10T08:51:17.307Z,983.3
2023-03-10T08:52:20.388Z,983.3
2023-03-10T08:53:23.447Z,983.3
2023-03-10T08:54:26.172Z,983.3
2023-03-10T08:55:29.268Z,983.3
2023-03-10T08:56:32.304Z,983.3
2023-03-10T08:57:35.297Z,983.3
2023-03-10T08:58:38.845Z,983.4
2023-03-10T08:59:42.365Z,983.3
2023-03-10T09:00:45.440Z,983.4
2023-03-10T09:01:49.220Z,983.3
2023-03-10T09:02:52.804Z,983.4
2023-03-10T09:03:57.103Z,983.4
2023-03-10T09:05:00.649Z,983.4
2023-03-10T09:06:04.914Z,983.4
2023-03-10T09:07:08.020Z,983.4
2023-03-10T09:08:11.360Z,983.4
2023-03-10T09:09:14.456Z,983.4
2023-03-10T09:10:17.507Z,983.4
2023-03-10T09:11:21.254Z,983.4
2023-03-10T09:12:26.312Z,983.4
2023-03-10T09:13:42.112Z,983.5
2023-03-10T09:14:45.003Z,983.5
2023-03-10T09:15:47.985Z,983.5
2023-03-10T09:16:50.564Z,983.5
2023-03-10T09:17:53.652Z,983.5
2023-03-10T09:18:56.541Z,983.5
2023-03-10T09:20:00.006Z,983.5
2023-03-10T09:21:03.022Z,983.5
2023-03-10T09:22:07.352Z,983.5
2023-03-10T09:23:09.879Z,983.5
2023-03-10T09:24:13.253Z,983.5
2023-03-10T09:25:16.738Z,983.5
2023-03-10T09:26:19.175Z,983.5
2023-03-10T09:27:21.723Z,983.5
2023-03-10T09:28:24.436Z,983.5
2023-03-10T09:29:43.641Z,983.5
2023-03-10T09:30:47.232Z,983.5
2023-03-10T09:31:51.438Z,983.5
2023-03-10T09:32:55.203Z,983.5
2023-03-10T09:33:59.120Z,983.5
2023-03-10T09:35:02.185Z,983.5
2023-03-10T09:36:08.322Z,983.5
2023-03-10T09:37:12.706Z,983.5
2023-03-10T09:38:15.506Z,983.5
2023-03-10T09:39:18.617Z,983.6
2023-03-10T09:40:21.522Z,983.6
2023-03-10T09:41:24.428Z,983.6
2023-03-10T09:42:38.765Z,983.6
2023-03-10T09:43:41.136Z,983.6
2023-03-10T09:44:44.507Z,983.6
2023-03-10T09:45:48.298Z,983.7
2023-03-10T09:46:51.354Z,983.7
2023-03-10T09:47:55.008Z,983.6
2023-03-10T09:48:57.730Z,983.7
2023-03-10T09:50:00.719Z,983.7
2023-03-10T09:51:03.801Z,983.7
2023-03-10T09:52:07.294Z,983.7
2023-03-10T09:53:11.445Z,983.7
2023-03-10T09:54:14.585Z,983.7
2023-03-10T09:55:17.652Z,983.8
2023-03-10T09:56:21.146Z,983.7
2023-03-10T09:57:24.903Z,983.8
2023-03-10T09:58:28.624Z,983.8
2023-03-10T09:59:31.684Z,983.8
2023-03-10T10:00:35.142Z,983.8
2023-03-10T10:01:37.734Z,983.8
2023-03-10T10:02:41.479Z,983.8
2023-03-10T10:03:53.888Z,983.8
2023-03-10T10:04:57.380Z,983.8
2023-03-10T10:06:01.845Z,983.8
2023-03-10T10:07:05.047Z,983.8
2023-03-10T10:08:08.029Z,983.8
2023-03-10T10:09:12.167Z,983.9
2023-03-10T10:10:15.262Z,983.9
2023-03-10T10:11:18.636Z,983.9
2023-03-10T10:12:20.902Z,983.8
2023-03-10T10:13:24.556Z,983.9
2023-03-10T10:14:31.679Z,983.9
2023-03-10T10:15:36.198Z,983.9
2023-03-10T10:16:39.646Z,983.9
2023-03-10T10:17:58.509Z,983.9
2023-03-10T10:19:28.479Z,983.9
2023-03-10T10:20:31.869Z,983.9
2023-03-10T10:21:43.251Z,983.9
2023-03-10T10:22:46.370Z,984
2023-03-10T10:23:49.877Z,984
2023-03-10T10:24:54.071Z,984
2023-03-10T10:25:57.246Z,984
2023-03-10T10:27:04.242Z,984
2023-03-10T10:28:07.432Z,984.1
2023-03-10T10:29:11.441Z,984
2023-03-10T10:30:14.828Z,984
2023-03-10T10:31:18.014Z,984.1
2023-03-10T10:32:22.598Z,984.1
2023-03-10T10:33:25.549Z,984.1
2023-03-10T10:34:28.386Z,984.1
2023-03-10T10:35:31.489Z,984.1
2023-03-10T10:36:34.854Z,984.1
2023-03-10T10:37:41.886Z,984.2
2023-03-10T10:38:45.119Z,984.1
2023-03-10T10:39:48.235Z,984.2
2023-03-10T10:40:52.438Z,984.1
2023-03-10T10:41:56.189Z,984.1
2023-03-10T10:42:58.980Z,984.2
2023-03-10T10:44:02.128Z,984.2
2023-03-10T10:45:05.589Z,984.2
2023-03-10T10:46:08.722Z,984.2
2023-03-10T10:47:12.068Z,984.2
2023-03-10T10:48:15.726Z,984.2
2023-03-10T10:49:19.083Z,984.2
2023-03-10T10:50:22.535Z,984.2
2023-03-10T10:51:26.602Z,984.2
2023-03-10T10:52:30.014Z,984.2
2023-03-10T10:53:32.728Z,984.1
2023-03-10T10:54:36.289Z,984.1
2023-03-10T10:55:38.764Z,984.1
2023-03-10T10:56:42.897Z,984.1
2023-03-10T10:57:45.680Z,984.1
2023-03-10T10:58:49.313Z,984.1
2023-03-10T10:59:52.485Z,984.1
2023-03-10T11:00:56.237Z,984.1
2023-03-10T11:01:59.834Z,984.1
2023-03-10T11:03:04.566Z,984.1
2023-03-10T11:04:08.231Z,984.1
2023-03-10T11:05:11.307Z,984.1
2023-03-10T11:06:14.702Z,984.1
2023-03-10T11:07:17.988Z,984.1
2023-03-10T11:08:21.483Z,984.1
2023-03-10T11:09:24.495Z,984.1
2023-03-10T11:10:28.520Z,984.1
2023-03-10T11:11:31.957Z,984
2023-03-10T11:12:36.129Z,984
2023-03-10T11:13:38.573Z,984
2023-03-10T11:14:41.651Z,984
2023-03-10T11:15:44.872Z,983.9
2023-03-10T11:16:48.501Z,983.9
2023-03-10T11:17:52.539Z,983.9
2023-03-10T11:18:55.042Z,983.8
2023-03-10T11:19:58.748Z,983.8
2023-03-10T11:21:01.756Z,983.7
2023-03-10T11:22:04.634Z,983.7
2023-03-10T11:23:08.001Z,983.7
2023-03-10T11:24:11.447Z,983.6
2023-03-10T11:25:14.557Z,983.6
2023-03-10T11:26:18.219Z,983.5
2023-03-10T11:27:21.687Z,983.5
2023-03-10T11:28:25.847Z,983.4
2023-03-10T11:29:28.740Z,983.4
2023-03-10T11:30:32.007Z,983.4
2023-03-10T11:31:35.644Z,983.4
2023-03-10T11:32:39.376Z,983.4
2023-03-10T11:33:42.918Z,983.3
2023-03-10T11:34:46.324Z,983.3
2023-03-10T11:35:49.835Z,983.3
2023-03-10T11:36:57.561Z,983.4
2023-03-10T11:38:00.385Z,983.4
2023-03-10T11:39:03.271Z,983.4
2023-03-10T11:40:06.617Z,983.4
2023-03-10T11:41:10.303Z,983.4
2023-03-10T11:42:13.341Z,983.4
2023-03-10T11:43:17.007Z,983.5
2023-03-10T11:44:21.087Z,983.4
2023-03-10T11:45:23.797Z,983.4
2023-03-10T11:46:27.676Z,983.4
2023-03-10T11:47:31.162Z,983.3
2023-03-10T11:48:34.266Z,983.3
2023-03-10T11:49:37.144Z,983.2
2023-03-10T11:50:40.229Z,983.1
2023-03-10T11:51:43.989Z,983.1
2023-03-10T11:52:46.552Z,983.2
2023-03-10T11:53:49.583Z,983.2
2023-03-10T11:54:53.029Z,983.3
2023-03-10T11:55:56.762Z,983.5
2023-03-10T11:57:00.399Z,983.6
2023-03-10T11:58:03.555Z,983.7
2023-03-10T11:59:06.983Z,983.8
2023-03-10T12:00:11.297Z,983.9
2023-03-10T12:01:15.046Z,984
2023-03-10T12:02:18.688Z,984
2023-03-10T12:03:21.629Z,984
2023-03-10T12:04:25.303Z,984
2023-03-10T12:05:28.570Z,984.1
2023-03-10T12:06:31.201Z,984.1
2023-03-10T12:07:34.834Z,984.1
2023-03-10T12:08:38.572Z,984.1
2023-03-10T12:09:41.055Z,984.1
2023-03-10T12:10:44.142Z,984
2023-03-10T12:11:47.543Z,984.1
2023-03-10T12:12:50.946Z,984
2023-03-10T12:13:53.923Z,984
2023-03-10T12:14:56.736Z,983.9
2023-03-10T12:16:01.042Z,983.9
2023-03-10T12:17:04.531Z,983.9
2023-03-10T12:18:08.316Z,983.8
2023-03-10T12:19:11.041Z,983.8
2023-03-10T12:20:13.789Z,983.8
2023-03-10T12:21:18.155Z,983.7
2023-03-10T12:22:21.464Z,983.7
2023-03-10T12:23:24.301Z,983.7
2023-03-10T12:24:27.235Z,983.7
2023-03-10T12:25:30.329Z,983.7
2023-03-10T12:26:33.363Z,983.6
2023-03-10T12:27:36.488Z,983.6
2023-03-10T12:28:38.850Z,983.6
2023-03-10T12:29:42.232Z,983.6
2023-03-10T12:30:45.627Z,983.6
2023-03-10T12:31:49.875Z,983.5
2023-03-10T12:32:53.981Z,983.6
2023-03-10T12:33:57.466Z,983.7
2023-03-10T12:35:00.732Z,983.7
2023-03-10T12:36:03.964Z,983.7
2023-03-10T12:37:07.778Z,983.7
2023-03-10T12:38:11.484Z,983.7
2023-03-10T12:39:14.775Z,983.8
2023-03-10T12:40:18.036Z,983.7
2023-03-10T12:41:20.830Z,983.7
2023-03-10T12:42:26.623Z,983.8
2023-03-10T12:43:29.657Z,983.8
2023-03-10T12:44:33.017Z,983.9
2023-03-10T12:45:36.358Z,983.9
2023-03-10T12:46:39.775Z,983.9
2023-03-10T12:47:44.300Z,984
2023-03-10T12:48:47.132Z,983.9
2023-03-10T12:49:50.256Z,984
2023-03-10T12:50:53.662Z,984
2023-03-10T12:51:57.096Z,984
2023-03-10T12:52:59.952Z,983.9
2023-03-10T12:54:03.628Z,983.9
2023-03-10T12:55:06.788Z,983.9
2023-03-10T12:56:10.144Z,983.9
2023-03-10T12:57:16.897Z,983.9
2023-03-10T12:58:20.707Z,983.9
2023-03-10T12:59:23.239Z,983.9
2023-03-10T13:00:26.287Z,984
2023-03-10T13:01:29.293Z,984
2023-03-10T13:02:34.461Z,983.9
2023-03-10T13:03:38.839Z,984
2023-03-10T13:04:42.776Z,983.9
2023-03-10T13:05:46.428Z,983.9
2023-03-10T13:06:49.638Z,983.9
2023-03-10T13:07:53.403Z,983.9
2023-03-10T13:08:56.394Z,983.8
2023-03-10T13:09:59.805Z,983.8
2023-03-10T13:11:02.316Z,983.7
2023-03-10T13:12:05.443Z,983.7
2023-03-10T13:13:08.871Z,983.7
2023-03-10T13:14:12.554Z,983.7
2023-03-10T13:15:15.382Z,983.7
2023-03-10T13:16:19.131Z,983.7
2023-03-10T13:17:23.178Z,983.7
2023-03-10T13:18:25.682Z,983.7
2023-03-10T13:19:29.964Z,983.7
2023-03-10T13:20:33.352Z,983.8
2023-03-10T13:21:36.807Z,983.8
2023-03-10T13:22:40.170Z,983.9
2023-03-10T13:23:43.565Z,983.9
2023-03-10T13:24:46.708Z,983.8
2023-03-10T13:25:49.800Z,983.8
2023-03-10T13:26:53.068Z,983.8
2023-03-10T13:27:55.497Z,983.8
2023-03-10T13:28:58.497Z,983.8
2023-03-10T13:30:01.781Z,983.8
2023-03-10T13:31:04.913Z,983.8
2023-03-10T13:32:08.906Z,983.8
2023-03-10T13:33:12.680Z,983.8
2023-03-10T13:34:16.395Z,983.9
2023-03-10T13:35:20.544Z,983.9
2023-03-10T13:36:23.652Z,983.9
2023-03-10T13:37:26.736Z,983.9
2023-03-10T13:38:29.931Z,983.9
2023-03-10T13:39:33.035Z,983.9
2023-03-10T13:40:36.410Z,983.9
2023-03-10T13:41:39.483Z,983.9
2023-03-10T13:42:45.121Z,983.8